Woodyard, Illinois
Current Conditions -  °F | °C
As of 2:35 AM on Friday 19 Dec 2014 (Local Time) from KSLO Reporting Station
Overcast Overcast  
Wind Chill: 32°   Ceiling: 4300
Heat Index: 32°   Visibility: 7mi
Dew Point: 28°   Wind: 3mph
Humidity: 82%   Direction: 10°N
Pressure: 30.29"   Gusts: NA
Location:  38.8463°N, 89.0894°W
Report Text: KSLO 190835Z AUTO 01003KT 7SM OVC043 00/M02 A3029 RMK AO2 T00021025
Loading
Personal Weather Stations






























Interactive Weather Map New forecast layout! Learn more

10-Day Weather Forecast

Advertisements
Track Severe Weather on mobile